sensor_id;sensor_type;location;lat;lon;timestamp;P1;durP1;ratioP1;P2;durP2;ratioP2
51048;SDS011;37084;55.228;36.450;2024-01-27T00:00:35;60.53;;;21.80;;
51048;SDS011;37084;55.228;36.450;2024-01-27T00:03:36;55.63;;;18.23;;
51048;SDS011;37084;55.228;36.450;2024-01-27T00:06:37;57.33;;;18.77;;
51048;SDS011;37084;55.228;36.450;2024-01-27T00:09:39;57.00;;;19.20;;
51048;SDS011;37084;55.228;36.450;2024-01-27T00:12:41;51.65;;;19.42;;
51048;SDS011;37084;55.228;36.450;2024-01-27T00:15:42;54.25;;;17.92;;
51048;SDS011;37084;55.228;36.450;2024-01-27T00:18:44;60.55;;;19.50;;
51048;SDS011;37084;55.228;36.450;2024-01-27T00:21:46;51.55;;;17.98;;
51048;SDS011;37084;55.228;36.450;2024-01-27T00:24:48;55.55;;;19.58;;
51048;SDS011;37084;55.228;36.450;2024-01-27T00:27:49;54.80;;;20.80;;
51048;SDS011;37084;55.228;36.450;2024-01-27T00:30:51;57.88;;;19.95;;
51048;SDS011;37084;55.228;36.450;2024-01-27T00:33:52;53.72;;;19.13;;
51048;SDS011;37084;55.228;36.450;2024-01-27T00:36:53;58.53;;;19.92;;
51048;SDS011;37084;55.228;36.450;2024-01-27T00:39:55;58.22;;;19.85;;
51048;SDS011;37084;55.228;36.450;2024-01-27T00:42:57;57.25;;;19.65;;
51048;SDS011;37084;55.228;36.450;2024-01-27T00:45:59;59.63;;;19.77;;
51048;SDS011;37084;55.228;36.450;2024-01-27T00:49:00;54.53;;;18.55;;
51048;SDS011;37084;55.228;36.450;2024-01-27T00:52:02;55.97;;;19.63;;
51048;SDS011;37084;55.228;36.450;2024-01-27T00:55:03;61.40;;;19.80;;
51048;SDS011;37084;55.228;36.450;2024-01-27T00:58:06;54.20;;;18.13;;
51048;SDS011;37084;55.228;36.450;2024-01-27T01:01:08;53.45;;;19.23;;
51048;SDS011;37084;55.228;36.450;2024-01-27T01:04:09;55.88;;;18.13;;
51048;SDS011;37084;55.228;36.450;2024-01-27T01:07:11;59.00;;;20.33;;
51048;SDS011;37084;55.228;36.450;2024-01-27T01:10:12;60.95;;;19.20;;
51048;SDS011;37084;55.228;36.450;2024-01-27T01:13:13;64.60;;;20.00;;
51048;SDS011;37084;55.228;36.450;2024-01-27T01:16:15;59.60;;;21.85;;
51048;SDS011;37084;55.228;36.450;2024-01-27T01:19:16;64.10;;;20.58;;
51048;SDS011;37084;55.228;36.450;2024-01-27T01:22:18;50.47;;;19.20;;
51048;SDS011;37084;55.228;36.450;2024-01-27T01:25:19;58.55;;;21.13;;
51048;SDS011;37084;55.228;36.450;2024-01-27T01:28:20;59.50;;;18.88;;
51048;SDS011;37084;55.228;36.450;2024-01-27T01:31:22;57.03;;;18.70;;
51048;SDS011;37084;55.228;36.450;2024-01-27T01:34:23;57.97;;;18.90;;
51048;SDS011;37084;55.228;36.450;2024-01-27T01:37:24;55.63;;;19.42;;
51048;SDS011;37084;55.228;36.450;2024-01-27T01:40:26;57.15;;;19.80;;
51048;SDS011;37084;55.228;36.450;2024-01-27T01:43:27;56.88;;;18.15;;
51048;SDS011;37084;55.228;36.450;2024-01-27T01:46:29;57.15;;;19.17;;
51048;SDS011;37084;55.228;36.450;2024-01-27T01:49:31;55.80;;;19.45;;
51048;SDS011;37084;55.228;36.450;2024-01-27T01:52:32;57.03;;;21.17;;
51048;SDS011;37084;55.228;36.450;2024-01-27T01:55:34;58.75;;;18.35;;
51048;SDS011;37084;55.228;36.450;2024-01-27T01:58:36;60.85;;;20.00;;
51048;SDS011;37084;55.228;36.450;2024-01-27T02:01:37;62.17;;;20.52;;
51048;SDS011;37084;55.228;36.450;2024-01-27T02:04:42;54.03;;;19.17;;
51048;SDS011;37084;55.228;36.450;2024-01-27T02:07:44;53.97;;;17.90;;
51048;SDS011;37084;55.228;36.450;2024-01-27T02:10:45;51.58;;;18.17;;
51048;SDS011;37084;55.228;36.450;2024-01-27T02:13:46;58.70;;;19.35;;
51048;SDS011;37084;55.228;36.450;2024-01-27T02:16:48;55.92;;;18.20;;
51048;SDS011;37084;55.228;36.450;2024-01-27T02:19:49;51.30;;;17.75;;
51048;SDS011;37084;55.228;36.450;2024-01-27T02:22:51;56.25;;;18.42;;
51048;SDS011;37084;55.228;36.450;2024-01-27T02:25:52;53.97;;;19.67;;
51048;SDS011;37084;55.228;36.450;2024-01-27T02:28:53;51.63;;;17.88;;
51048;SDS011;37084;55.228;36.450;2024-01-27T02:31:55;51.58;;;17.42;;
51048;SDS011;37084;55.228;36.450;2024-01-27T02:34:57;52.60;;;17.88;;
51048;SDS011;37084;55.228;36.450;2024-01-27T02:37:58;53.65;;;19.35;;
51048;SDS011;37084;55.228;36.450;2024-01-27T02:40:59;53.40;;;18.13;;
51048;SDS011;37084;55.228;36.450;2024-01-27T02:44:01;54.95;;;19.00;;
51048;SDS011;37084;55.228;36.450;2024-01-27T02:47:02;46.58;;;16.75;;
51048;SDS011;37084;55.228;36.450;2024-01-27T02:50:23;49.00;;;18.00;;
51048;SDS011;37084;55.228;36.450;2024-01-27T02:53:26;45.75;;;16.42;;
51048;SDS011;37084;55.228;36.450;2024-01-27T02:56:30;50.28;;;16.95;;
51048;SDS011;37084;55.228;36.450;2024-01-27T02:59:32;43.33;;;16.98;;
51048;SDS011;37084;55.228;36.450;2024-01-27T03:02:33;52.72;;;16.88;;
51048;SDS011;37084;55.228;36.450;2024-01-27T03:05:35;47.17;;;16.83;;
51048;SDS011;37084;55.228;36.450;2024-01-27T03:08:36;53.88;;;18.13;;
51048;SDS011;37084;55.228;36.450;2024-01-27T03:11:37;49.72;;;16.98;;
51048;SDS011;37084;55.228;36.450;2024-01-27T03:14:39;48.13;;;16.35;;
51048;SDS011;37084;55.228;36.450;2024-01-27T03:17:40;43.45;;;16.02;;
51048;SDS011;37084;55.228;36.450;2024-01-27T03:20:42;42.38;;;16.20;;
51048;SDS011;37084;55.228;36.450;2024-01-27T03:23:43;53.35;;;18.52;;
51048;SDS011;37084;55.228;36.450;2024-01-27T03:26:44;49.20;;;16.25;;
51048;SDS011;37084;55.228;36.450;2024-01-27T03:29:46;45.15;;;15.77;;
51048;SDS011;37084;55.228;36.450;2024-01-27T03:32:47;45.80;;;16.92;;
51048;SDS011;37084;55.228;36.450;2024-01-27T03:35:49;49.80;;;17.05;;
51048;SDS011;37084;55.228;36.450;2024-01-27T03:38:50;45.60;;;16.95;;
51048;SDS011;37084;55.228;36.450;2024-01-27T03:41:51;47.65;;;15.73;;
51048;SDS011;37084;55.228;36.450;2024-01-27T03:44:53;44.28;;;14.98;;
51048;SDS011;37084;55.228;36.450;2024-01-27T03:47:54;50.90;;;16.35;;
51048;SDS011;37084;55.228;36.450;2024-01-27T03:50:55;52.03;;;16.08;;
51048;SDS011;37084;55.228;36.450;2024-01-27T03:53:56;47.15;;;16.13;;
51048;SDS011;37084;55.228;36.450;2024-01-27T03:56:58;55.88;;;17.55;;
51048;SDS011;37084;55.228;36.450;2024-01-27T03:59:59;49.78;;;17.38;;
51048;SDS011;37084;55.228;36.450;2024-01-27T04:03:01;51.80;;;17.15;;
51048;SDS011;37084;55.228;36.450;2024-01-27T04:06:02;56.28;;;18.92;;
51048;SDS011;37084;55.228;36.450;2024-01-27T04:09:04;55.83;;;19.17;;
51048;SDS011;37084;55.228;36.450;2024-01-27T04:12:06;54.20;;;18.40;;
51048;SDS011;37084;55.228;36.450;2024-01-27T04:15:07;53.60;;;19.20;;
51048;SDS011;37084;55.228;36.450;2024-01-27T04:18:10;46.90;;;17.67;;
51048;SDS011;37084;55.228;36.450;2024-01-27T04:21:12;58.97;;;20.27;;
51048;SDS011;37084;55.228;36.450;2024-01-27T04:24:13;52.65;;;18.25;;
51048;SDS011;37084;55.228;36.450;2024-01-27T04:27:15;59.50;;;21.52;;
51048;SDS011;37084;55.228;36.450;2024-01-27T04:30:16;55.13;;;18.23;;
51048;SDS011;37084;55.228;36.450;2024-01-27T04:33:17;50.28;;;17.95;;
51048;SDS011;37084;55.228;36.450;2024-01-27T04:40:18;50.45;;;17.75;;
51048;SDS011;37084;55.228;36.450;2024-01-27T04:43:19;51.67;;;17.75;;
51048;SDS011;37084;55.228;36.450;2024-01-27T04:46:21;51.03;;;17.58;;
51048;SDS011;37084;55.228;36.450;2024-01-27T04:49:23;52.15;;;16.15;;
51048;SDS011;37084;55.228;36.450;2024-01-27T04:52:24;52.88;;;18.17;;
51048;SDS011;37084;55.228;36.450;2024-01-27T04:55:27;52.92;;;18.20;;
51048;SDS011;37084;55.228;36.450;2024-01-27T04:58:29;56.88;;;18.80;;
51048;SDS011;37084;55.228;36.450;2024-01-27T05:01:31;54.90;;;18.38;;
51048;SDS011;37084;55.228;36.450;2024-01-27T05:04:33;51.70;;;17.52;;
51048;SDS011;37084;55.228;36.450;2024-01-27T05:07:35;52.20;;;17.73;;
51048;SDS011;37084;55.228;36.450;2024-01-27T05:10:36;49.33;;;17.20;;
51048;SDS011;37084;55.228;36.450;2024-01-27T05:13:39;45.80;;;15.98;;
51048;SDS011;37084;55.228;36.450;2024-01-27T05:16:41;48.15;;;21.30;;
51048;SDS011;37084;55.228;36.450;2024-01-27T05:19:42;51.13;;;17.45;;
51048;SDS011;37084;55.228;36.450;2024-01-27T05:22:45;49.15;;;17.00;;
51048;SDS011;37084;55.228;36.450;2024-01-27T05:25:46;45.22;;;15.90;;
51048;SDS011;37084;55.228;36.450;2024-01-27T05:28:48;52.38;;;17.63;;
51048;SDS011;37084;55.228;36.450;2024-01-27T05:31:49;48.92;;;17.08;;
51048;SDS011;37084;55.228;36.450;2024-01-27T05:34:51;60.15;;;18.75;;
51048;SDS011;37084;55.228;36.450;2024-01-27T05:37:54;47.13;;;16.45;;
51048;SDS011;37084;55.228;36.450;2024-01-27T05:40:55;52.92;;;17.88;;
51048;SDS011;37084;55.228;36.450;2024-01-27T05:43:56;50.00;;;16.85;;
51048;SDS011;37084;55.228;36.450;2024-01-27T05:46:58;51.17;;;17.58;;
51048;SDS011;37084;55.228;36.450;2024-01-27T05:50:01;49.00;;;17.42;;
51048;SDS011;37084;55.228;36.450;2024-01-27T05:53:04;59.42;;;17.15;;
51048;SDS011;37084;55.228;36.450;2024-01-27T05:56:05;52.80;;;17.52;;
51048;SDS011;37084;55.228;36.450;2024-01-27T05:59:06;50.35;;;16.33;;
51048;SDS011;37084;55.228;36.450;2024-01-27T06:02:08;55.63;;;18.17;;
51048;SDS011;37084;55.228;36.450;2024-01-27T06:05:10;51.33;;;17.30;;
51048;SDS011;37084;55.228;36.450;2024-01-27T06:08:11;51.78;;;18.80;;
51048;SDS011;37084;55.228;36.450;2024-01-27T06:11:14;47.92;;;16.60;;
51048;SDS011;37084;55.228;36.450;2024-01-27T06:14:26;52.25;;;16.85;;
51048;SDS011;37084;55.228;36.450;2024-01-27T06:17:28;54.45;;;17.73;;
51048;SDS011;37084;55.228;36.450;2024-01-27T06:20:29;49.63;;;17.55;;
51048;SDS011;37084;55.228;36.450;2024-01-27T06:23:30;57.72;;;17.95;;
51048;SDS011;37084;55.228;36.450;2024-01-27T06:26:32;51.85;;;16.85;;
51048;SDS011;37084;55.228;36.450;2024-01-27T06:29:33;53.58;;;17.38;;
51048;SDS011;37084;55.228;36.450;2024-01-27T06:32:34;52.97;;;16.88;;
51048;SDS011;37084;55.228;36.450;2024-01-27T06:35:36;49.03;;;17.30;;
51048;SDS011;37084;55.228;36.450;2024-01-27T06:38:37;54.55;;;17.63;;
51048;SDS011;37084;55.228;36.450;2024-01-27T06:41:39;54.70;;;17.65;;
51048;SDS011;37084;55.228;36.450;2024-01-27T06:44:41;59.35;;;18.58;;
51048;SDS011;37084;55.228;36.450;2024-01-27T06:47:54;45.45;;;16.40;;
51048;SDS011;37084;55.228;36.450;2024-01-27T06:51:07;50.25;;;17.35;;
51048;SDS011;37084;55.228;36.450;2024-01-27T06:54:09;55.60;;;18.08;;
51048;SDS011;37084;55.228;36.450;2024-01-27T06:57:23;52.08;;;17.42;;
51048;SDS011;37084;55.228;36.450;2024-01-27T07:00:25;50.30;;;16.85;;
51048;SDS011;37084;55.228;36.450;2024-01-27T07:03:28;53.22;;;17.63;;
51048;SDS011;37084;55.228;36.450;2024-01-27T07:06:29;55.10;;;16.80;;
51048;SDS011;37084;55.228;36.450;2024-01-27T07:09:32;55.40;;;17.45;;
51048;SDS011;37084;55.228;36.450;2024-01-27T07:12:34;58.90;;;19.02;;
51048;SDS011;37084;55.228;36.450;2024-01-27T07:15:35;47.97;;;17.60;;
51048;SDS011;37084;55.228;36.450;2024-01-27T07:18:38;60.22;;;19.08;;
51048;SDS011;37084;55.228;36.450;2024-01-27T07:21:39;58.97;;;17.60;;
51048;SDS011;37084;55.228;36.450;2024-01-27T07:24:43;50.10;;;17.00;;
51048;SDS011;37084;55.228;36.450;2024-01-27T07:27:46;57.20;;;17.10;;
51048;SDS011;37084;55.228;36.450;2024-01-27T07:30:50;57.40;;;19.15;;
51048;SDS011;37084;55.228;36.450;2024-01-27T07:33:51;57.00;;;17.40;;
51048;SDS011;37084;55.228;36.450;2024-01-27T07:36:55;56.03;;;18.38;;
51048;SDS011;37084;55.228;36.450;2024-01-27T07:39:57;56.67;;;18.50;;
51048;SDS011;37084;55.228;36.450;2024-01-27T07:42:59;49.50;;;17.08;;
51048;SDS011;37084;55.228;36.450;2024-01-27T07:46:01;47.83;;;17.25;;
51048;SDS011;37084;55.228;36.450;2024-01-27T07:49:05;51.45;;;15.77;;
51048;SDS011;37084;55.228;36.450;2024-01-27T07:52:08;41.75;;;15.68;;
51048;SDS011;37084;55.228;36.450;2024-01-27T07:55:10;49.80;;;16.65;;
51048;SDS011;37084;55.228;36.450;2024-01-27T07:58:12;53.70;;;16.95;;
51048;SDS011;37084;55.228;36.450;2024-01-27T08:01:17;46.42;;;14.45;;
51048;SDS011;37084;55.228;36.450;2024-01-27T08:04:19;46.20;;;16.77;;
51048;SDS011;37084;55.228;36.450;2024-01-27T08:07:22;49.33;;;16.35;;
51048;SDS011;37084;55.228;36.450;2024-01-27T08:10:24;47.88;;;16.40;;
51048;SDS011;37084;55.228;36.450;2024-01-27T08:13:25;57.50;;;17.88;;
51048;SDS011;37084;55.228;36.450;2024-01-27T08:16:27;49.15;;;16.95;;
51048;SDS011;37084;55.228;36.450;2024-01-27T08:19:28;51.58;;;17.38;;
51048;SDS011;37084;55.228;36.450;2024-01-27T08:22:31;51.20;;;17.05;;
51048;SDS011;37084;55.228;36.450;2024-01-27T08:25:33;47.70;;;16.48;;
51048;SDS011;37084;55.228;36.450;2024-01-27T08:28:37;43.42;;;16.60;;
51048;SDS011;37084;55.228;36.450;2024-01-27T08:31:40;46.10;;;16.95;;
51048;SDS011;37084;55.228;36.450;2024-01-27T08:34:46;48.15;;;15.60;;
51048;SDS011;37084;55.228;36.450;2024-01-27T08:37:49;48.22;;;16.15;;
51048;SDS011;37084;55.228;36.450;2024-01-27T08:40:51;43.05;;;15.50;;
51048;SDS011;37084;55.228;36.450;2024-01-27T08:43:52;41.25;;;15.60;;
51048;SDS011;37084;55.228;36.450;2024-01-27T08:46:55;41.33;;;15.30;;
51048;SDS011;37084;55.228;36.450;2024-01-27T08:49:57;39.88;;;14.98;;
51048;SDS011;37084;55.228;36.450;2024-01-27T08:52:58;37.70;;;17.00;;
51048;SDS011;37084;55.228;36.450;2024-01-27T08:56:00;41.03;;;15.25;;
51048;SDS011;37084;55.228;36.450;2024-01-27T08:59:02;39.55;;;14.60;;
51048;SDS011;37084;55.228;36.450;2024-01-27T09:02:04;40.13;;;14.45;;
51048;SDS011;37084;55.228;36.450;2024-01-27T09:05:08;35.97;;;14.77;;
51048;SDS011;37084;55.228;36.450;2024-01-27T09:08:10;35.60;;;15.80;;
51048;SDS011;37084;55.228;36.450;2024-01-27T09:11:11;37.08;;;14.55;;
51048;SDS011;37084;55.228;36.450;2024-01-27T09:14:14;43.67;;;14.18;;
51048;SDS011;37084;55.228;36.450;2024-01-27T09:17:17;37.65;;;15.48;;
51048;SDS011;37084;55.228;36.450;2024-01-27T09:20:23;34.40;;;12.85;;
51048;SDS011;37084;55.228;36.450;2024-01-27T09:23:27;31.42;;;13.15;;
51048;SDS011;37084;55.228;36.450;2024-01-27T09:26:30;33.38;;;13.73;;
51048;SDS011;37084;55.228;36.450;2024-01-27T09:29:35;33.28;;;13.60;;
51048;SDS011;37084;55.228;36.450;2024-01-27T09:32:40;30.92;;;12.90;;
51048;SDS011;37084;55.228;36.450;2024-01-27T09:35:42;31.02;;;12.30;;
51048;SDS011;37084;55.228;36.450;2024-01-27T09:38:45;34.90;;;13.48;;
51048;SDS011;37084;55.228;36.450;2024-01-27T09:41:47;28.85;;;12.73;;
51048;SDS011;37084;55.228;36.450;2024-01-27T09:44:49;28.42;;;12.02;;
51048;SDS011;37084;55.228;36.450;2024-01-27T09:47:52;33.40;;;12.82;;
51048;SDS011;37084;55.228;36.450;2024-01-27T09:50:59;40.55;;;15.70;;
51048;SDS011;37084;55.228;36.450;2024-01-27T09:54:07;39.40;;;15.80;;
51048;SDS011;37084;55.228;36.450;2024-01-27T09:57:08;41.03;;;14.77;;
51048;SDS011;37084;55.228;36.450;2024-01-27T10:00:11;38.90;;;15.27;;
51048;SDS011;37084;55.228;36.450;2024-01-27T10:03:14;43.65;;;14.68;;
51048;SDS011;37084;55.228;36.450;2024-01-27T10:06:15;39.08;;;15.55;;
51048;SDS011;37084;55.228;36.450;2024-01-27T10:09:17;41.10;;;15.60;;
51048;SDS011;37084;55.228;36.450;2024-01-27T10:12:19;39.58;;;13.77;;
51048;SDS011;37084;55.228;36.450;2024-01-27T10:15:24;38.53;;;14.68;;
51048;SDS011;37084;55.228;36.450;2024-01-27T10:18:37;48.10;;;19.02;;
51048;SDS011;37084;55.228;36.450;2024-01-27T10:21:39;42.83;;;17.02;;
51048;SDS011;37084;55.228;36.450;2024-01-27T10:24:42;41.38;;;17.75;;
51048;SDS011;37084;55.228;36.450;2024-01-27T10:27:44;40.88;;;16.10;;
51048;SDS011;37084;55.228;36.450;2024-01-27T10:30:47;41.50;;;14.45;;
51048;SDS011;37084;55.228;36.450;2024-01-27T10:34:02;46.53;;;16.67;;
51048;SDS011;37084;55.228;36.450;2024-01-27T10:37:12;35.97;;;15.38;;
51048;SDS011;37084;55.228;36.450;2024-01-27T10:40:17;38.30;;;15.43;;
51048;SDS011;37084;55.228;36.450;2024-01-27T10:43:25;41.67;;;14.98;;
51048;SDS011;37084;55.228;36.450;2024-01-27T10:46:48;43.35;;;18.08;;
51048;SDS011;37084;55.228;36.450;2024-01-27T10:50:37;35.97;;;14.48;;
51048;SDS011;37084;55.228;36.450;2024-01-27T10:53:42;33.60;;;13.25;;
51048;SDS011;37084;55.228;36.450;2024-01-27T10:56:45;31.90;;;13.40;;
51048;SDS011;37084;55.228;36.450;2024-01-27T10:59:57;32.35;;;13.15;;
51048;SDS011;37084;55.228;36.450;2024-01-27T11:03:06;35.20;;;13.85;;
51048;SDS011;37084;55.228;36.450;2024-01-27T11:06:07;32.17;;;12.20;;
51048;SDS011;37084;55.228;36.450;2024-01-27T11:09:12;37.63;;;14.38;;
51048;SDS011;37084;55.228;36.450;2024-01-27T11:12:16;34.35;;;14.05;;
51048;SDS011;37084;55.228;36.450;2024-01-27T11:15:25;42.92;;;15.95;;
51048;SDS011;37084;55.228;36.450;2024-01-27T11:18:34;46.55;;;16.23;;
51048;SDS011;37084;55.228;36.450;2024-01-27T11:21:40;43.25;;;16.52;;
51048;SDS011;37084;55.228;36.450;2024-01-27T11:24:43;42.90;;;15.93;;
51048;SDS011;37084;55.228;36.450;2024-01-27T11:27:53;39.67;;;16.23;;
51048;SDS011;37084;55.228;36.450;2024-01-27T11:31:07;39.33;;;16.55;;
51048;SDS011;37084;55.228;36.450;2024-01-27T11:34:19;44.70;;;16.83;;
51048;SDS011;37084;55.228;36.450;2024-01-27T11:37:25;38.05;;;14.30;;
51048;SDS011;37084;55.228;36.450;2024-01-27T11:40:32;30.02;;;11.93;;
51048;SDS011;37084;55.228;36.450;2024-01-27T11:43:36;30.48;;;12.13;;
51048;SDS011;37084;55.228;36.450;2024-01-27T11:46:40;35.85;;;11.57;;
51048;SDS011;37084;55.228;36.450;2024-01-27T11:49:42;29.70;;;11.15;;
51048;SDS011;37084;55.228;36.450;2024-01-27T11:52:58;29.35;;;11.57;;
51048;SDS011;37084;55.228;36.450;2024-01-27T11:56:03;29.95;;;12.25;;
51048;SDS011;37084;55.228;36.450;2024-01-27T11:59:09;25.52;;;10.30;;
51048;SDS011;37084;55.228;36.450;2024-01-27T12:02:16;24.42;;;9.55;;
51048;SDS011;37084;55.228;36.450;2024-01-27T12:05:20;26.77;;;10.50;;
51048;SDS011;37084;55.228;36.450;2024-01-27T12:08:23;29.95;;;12.02;;
51048;SDS011;37084;55.228;36.450;2024-01-27T12:11:26;27.67;;;11.32;;
51048;SDS011;37084;55.228;36.450;2024-01-27T12:14:40;28.30;;;11.32;;
51048;SDS011;37084;55.228;36.450;2024-01-27T12:17:50;29.77;;;10.88;;
51048;SDS011;37084;55.228;36.450;2024-01-27T12:20:54;32.47;;;12.02;;
51048;SDS011;37084;55.228;36.450;2024-01-27T12:23:57;26.83;;;11.15;;
51048;SDS011;37084;55.228;36.450;2024-01-27T12:27:02;26.63;;;11.85;;
51048;SDS011;37084;55.228;36.450;2024-01-27T12:30:04;26.70;;;11.63;;
51048;SDS011;37084;55.228;36.450;2024-01-27T12:33:09;30.27;;;13.00;;
51048;SDS011;37084;55.228;36.450;2024-01-27T12:36:16;27.15;;;11.82;;
51048;SDS011;37084;55.228;36.450;2024-01-27T12:39:20;35.38;;;13.68;;
51048;SDS011;37084;55.228;36.450;2024-01-27T12:42:24;34.90;;;12.57;;
51048;SDS011;37084;55.228;36.450;2024-01-27T12:45:25;32.67;;;13.20;;
51048;SDS011;37084;55.228;36.450;2024-01-27T12:48:27;30.63;;;12.82;;
51048;SDS011;37084;55.228;36.450;2024-01-27T12:51:29;31.75;;;11.77;;
51048;SDS011;37084;55.228;36.450;2024-01-27T12:54:32;34.25;;;13.35;;
51048;SDS011;37084;55.228;36.450;2024-01-27T12:57:34;30.65;;;13.20;;
51048;SDS011;37084;55.228;36.450;2024-01-27T13:00:39;32.65;;;12.30;;
51048;SDS011;37084;55.228;36.450;2024-01-27T13:03:55;32.70;;;12.40;;
51048;SDS011;37084;55.228;36.450;2024-01-27T13:06:59;32.17;;;14.40;;
51048;SDS011;37084;55.228;36.450;2024-01-27T13:10:01;30.20;;;13.10;;
51048;SDS011;37084;55.228;36.450;2024-01-27T13:13:05;35.80;;;13.68;;
51048;SDS011;37084;55.228;36.450;2024-01-27T13:16:06;33.85;;;13.50;;
51048;SDS011;37084;55.228;36.450;2024-01-27T13:19:09;33.20;;;13.20;;
51048;SDS011;37084;55.228;36.450;2024-01-27T13:22:10;36.20;;;14.10;;
51048;SDS011;37084;55.228;36.450;2024-01-27T13:25:13;36.33;;;13.25;;
51048;SDS011;37084;55.228;36.450;2024-01-27T13:28:14;34.40;;;13.15;;
51048;SDS011;37084;55.228;36.450;2024-01-27T13:31:16;37.80;;;12.73;;
51048;SDS011;37084;55.228;36.450;2024-01-27T13:34:19;30.75;;;12.35;;
51048;SDS011;37084;55.228;36.450;2024-01-27T13:37:21;36.75;;;12.95;;
51048;SDS011;37084;55.228;36.450;2024-01-27T13:40:23;31.98;;;12.00;;
51048;SDS011;37084;55.228;36.450;2024-01-27T13:43:24;34.05;;;13.27;;
51048;SDS011;37084;55.228;36.450;2024-01-27T13:46:26;34.75;;;13.15;;
51048;SDS011;37084;55.228;36.450;2024-01-27T13:49:27;35.67;;;14.95;;
51048;SDS011;37084;55.228;36.450;2024-01-27T13:52:29;33.85;;;13.38;;
51048;SDS011;37084;55.228;36.450;2024-01-27T13:55:34;35.33;;;13.52;;
51048;SDS011;37084;55.228;36.450;2024-01-27T13:58:37;35.55;;;13.27;;
51048;SDS011;37084;55.228;36.450;2024-01-27T14:01:39;30.65;;;13.38;;
51048;SDS011;37084;55.228;36.450;2024-01-27T14:04:41;35.50;;;13.85;;
51048;SDS011;37084;55.228;36.450;2024-01-27T14:07:42;35.13;;;12.73;;
51048;SDS011;37084;55.228;36.450;2024-01-27T14:10:44;30.70;;;12.75;;
51048;SDS011;37084;55.228;36.450;2024-01-27T14:13:48;40.05;;;13.60;;
51048;SDS011;37084;55.228;36.450;2024-01-27T14:16:52;37.05;;;15.63;;
51048;SDS011;37084;55.228;36.450;2024-01-27T14:19:56;36.25;;;13.18;;
51048;SDS011;37084;55.228;36.450;2024-01-27T14:22:57;36.97;;;13.18;;
51048;SDS011;37084;55.228;36.450;2024-01-27T14:26:03;38.25;;;16.02;;
51048;SDS011;37084;55.228;36.450;2024-01-27T14:29:18;28.48;;;12.45;;
51048;SDS011;37084;55.228;36.450;2024-01-27T14:32:19;31.95;;;13.57;;
51048;SDS011;37084;55.228;36.450;2024-01-27T14:35:20;34.50;;;13.40;;
51048;SDS011;37084;55.228;36.450;2024-01-27T14:38:22;28.73;;;11.88;;
51048;SDS011;37084;55.228;36.450;2024-01-27T14:41:23;33.10;;;12.25;;
51048;SDS011;37084;55.228;36.450;2024-01-27T14:44:25;28.20;;;12.52;;
51048;SDS011;37084;55.228;36.450;2024-01-27T14:47:26;26.23;;;11.70;;
51048;SDS011;37084;55.228;36.450;2024-01-27T14:50:28;27.85;;;10.93;;
51048;SDS011;37084;55.228;36.450;2024-01-27T14:53:32;29.15;;;11.93;;
51048;SDS011;37084;55.228;36.450;2024-01-27T14:56:33;28.95;;;10.98;;
51048;SDS011;37084;55.228;36.450;2024-01-27T14:59:37;25.50;;;10.95;;
51048;SDS011;37084;55.228;36.450;2024-01-27T15:02:41;29.05;;;11.60;;
51048;SDS011;37084;55.228;36.450;2024-01-27T15:05:47;26.17;;;10.93;;
51048;SDS011;37084;55.228;36.450;2024-01-27T15:08:49;20.55;;;9.85;;
51048;SDS011;37084;55.228;36.450;2024-01-27T15:11:52;22.17;;;11.23;;
51048;SDS011;37084;55.228;36.450;2024-01-27T15:14:53;23.08;;;9.43;;
51048;SDS011;37084;55.228;36.450;2024-01-27T15:17:58;25.58;;;10.27;;
51048;SDS011;37084;55.228;36.450;2024-01-27T15:21:01;26.40;;;10.63;;
51048;SDS011;37084;55.228;36.450;2024-01-27T15:24:08;21.95;;;10.20;;
51048;SDS011;37084;55.228;36.450;2024-01-27T15:27:10;28.88;;;10.07;;
51048;SDS011;37084;55.228;36.450;2024-01-27T15:30:14;21.40;;;9.23;;
51048;SDS011;37084;55.228;36.450;2024-01-27T15:33:16;22.25;;;9.85;;
51048;SDS011;37084;55.228;36.450;2024-01-27T15:36:18;27.02;;;11.07;;
51048;SDS011;37084;55.228;36.450;2024-01-27T15:39:20;24.80;;;10.13;;
51048;SDS011;37084;55.228;36.450;2024-01-27T15:42:21;20.58;;;8.48;;
51048;SDS011;37084;55.228;36.450;2024-01-27T15:45:24;23.30;;;10.05;;
51048;SDS011;37084;55.228;36.450;2024-01-27T15:48:27;25.02;;;9.70;;
51048;SDS011;37084;55.228;36.450;2024-01-27T15:51:29;22.27;;;9.35;;
51048;SDS011;37084;55.228;36.450;2024-01-27T15:54:31;21.48;;;9.70;;
51048;SDS011;37084;55.228;36.450;2024-01-27T15:57:40;23.40;;;9.25;;
51048;SDS011;37084;55.228;36.450;2024-01-27T16:00:44;23.95;;;9.95;;
51048;SDS011;37084;55.228;36.450;2024-01-27T16:03:45;25.73;;;10.65;;
51048;SDS011;37084;55.228;36.450;2024-01-27T16:06:48;24.52;;;9.85;;
51048;SDS011;37084;55.228;36.450;2024-01-27T16:09:51;24.67;;;10.55;;
51048;SDS011;37084;55.228;36.450;2024-01-27T16:13:00;24.70;;;10.02;;
51048;SDS011;37084;55.228;36.450;2024-01-27T16:16:02;25.67;;;9.98;;
51048;SDS011;37084;55.228;36.450;2024-01-27T16:19:05;23.60;;;10.63;;
51048;SDS011;37084;55.228;36.450;2024-01-27T16:22:11;26.33;;;9.63;;
51048;SDS011;37084;55.228;36.450;2024-01-27T16:25:12;19.80;;;8.75;;
51048;SDS011;37084;55.228;36.450;2024-01-27T16:28:15;22.60;;;10.13;;
51048;SDS011;37084;55.228;36.450;2024-01-27T16:31:16;19.25;;;9.40;;
51048;SDS011;37084;55.228;36.450;2024-01-27T16:34:19;27.70;;;11.65;;
51048;SDS011;37084;55.228;36.450;2024-01-27T16:37:20;22.67;;;10.50;;
51048;SDS011;37084;55.228;36.450;2024-01-27T16:40:22;19.40;;;9.20;;
51048;SDS011;37084;55.228;36.450;2024-01-27T16:43:23;25.38;;;11.25;;
51048;SDS011;37084;55.228;36.450;2024-01-27T16:46:25;22.25;;;10.93;;
51048;SDS011;37084;55.228;36.450;2024-01-27T16:49:29;26.85;;;12.27;;
51048;SDS011;37084;55.228;36.450;2024-01-27T16:52:32;21.88;;;9.60;;
51048;SDS011;37084;55.228;36.450;2024-01-27T16:55:33;34.33;;;13.27;;
51048;SDS011;37084;55.228;36.450;2024-01-27T16:58:35;33.10;;;13.20;;
51048;SDS011;37084;55.228;36.450;2024-01-27T17:01:38;23.15;;;10.32;;
51048;SDS011;37084;55.228;36.450;2024-01-27T17:04:40;22.98;;;10.35;;
51048;SDS011;37084;55.228;36.450;2024-01-27T17:07:43;20.98;;;9.38;;
51048;SDS011;37084;55.228;36.450;2024-01-27T17:10:45;21.85;;;10.52;;
51048;SDS011;37084;55.228;36.450;2024-01-27T17:13:48;24.67;;;10.63;;
51048;SDS011;37084;55.228;36.450;2024-01-27T17:16:52;20.35;;;8.75;;
51048;SDS011;37084;55.228;36.450;2024-01-27T17:19:55;21.80;;;9.70;;
51048;SDS011;37084;55.228;36.450;2024-01-27T17:22:56;24.98;;;10.13;;
51048;SDS011;37084;55.228;36.450;2024-01-27T17:25:59;24.08;;;9.52;;
51048;SDS011;37084;55.228;36.450;2024-01-27T17:29:01;21.98;;;9.77;;
51048;SDS011;37084;55.228;36.450;2024-01-27T17:32:04;25.10;;;10.50;;
51048;SDS011;37084;55.228;36.450;2024-01-27T17:35:15;24.98;;;10.68;;
51048;SDS011;37084;55.228;36.450;2024-01-27T17:38:16;24.30;;;9.57;;